Time;durP1;ratioP1;P1;durP2;ratioP2;P2;SDS_P1;SDS_P2;PMS_P1;PMS_P2;Temp;Humidity;BMP_temperature;BMP_pressure;BME280_temperature;BME280_humidity;BME280_pressure;Samples;Min_cycle;Max_cycle;Signal;HPM_P1;HPM_P2
2022/01/17 00:02:22;;;;;;;54.10;35.20;;;6.20;99.90;;;;;;5134475;28;20187;-56
2022/01/17 00:04:48;;;;;;;52.63;34.30;;;6.30;99.90;;;;;;5134743;27;20176;-55
2022/01/17 00:07:14;;;;;;;48.55;36.65;;;6.30;99.90;;;;;;5134375;27;20203;-55
2022/01/17 00:09:40;;;;;;;63.47;38.88;;;6.30;99.90;;;;;;5133075;28;20644;-55
2022/01/17 00:12:06;;;;;;;54.20;35.50;;;6.30;99.90;;;;;;5134318;27;20290;-55
2022/01/17 00:14:39;;;;;;;53.45;36.05;;;6.20;99.90;;;;;;5134302;27;20183;-55
2022/01/17 00:19:44;;;;;;;57.08;36.10;;;6.10;99.90;;;;;;5136214;27;20175;-55
2022/01/17 00:22:12;;;;;;;51.85;34.83;;;6.20;99.90;;;;;;5138392;27;20197;-55
2022/01/17 00:24:39;;;;;;;53.08;33.85;;;6.20;99.90;;;;;;5138182;27;20216;-55
2022/01/17 00:27:04;;;;;;;52.40;37.65;;;6.20;99.90;;;;;;5138468;27;20185;-56
2022/01/17 00:29:30;;;;;;;48.50;34.92;;;6.20;99.90;;;;;;5138322;27;20813;-55
2022/01/17 00:31:56;;;;;;;51.55;34.67;;;6.20;99.90;;;;;;5138308;27;20200;-56
2022/01/17 00:34:23;;;;;;;52.25;34.75;;;6.40;99.90;;;;;;5137920;27;20654;-55
2022/01/17 00:36:48;;;;;;;49.65;35.13;;;6.30;99.90;;;;;;5137969;27;20169;-55
2022/01/17 00:39:14;;;;;;;53.15;34.97;;;6.40;99.90;;;;;;5138128;27;20179;-56
2022/01/17 00:41:40;;;;;;;49.85;37.70;;;6.30;99.90;;;;;;5138165;27;20202;-56
2022/01/17 00:44:06;;;;;;;53.58;35.67;;;6.40;99.90;;;;;;5137859;27;20165;-55
2022/01/17 00:46:32;;;;;;;53.03;34.35;;;6.40;99.90;;;;;;5137850;27;20186;-55
2022/01/17 00:48:58;;;;;;;53.50;34.05;;;6.40;99.90;;;;;;5137876;27;20502;-55
2022/01/17 00:51:23;;;;;;;56.90;36.22;;;6.50;99.90;;;;;;5137861;27;20628;-56
2022/01/17 00:53:50;;;;;;;47.85;35.15;;;6.50;99.90;;;;;;5137840;27;20208;-56
2022/01/17 00:56:16;;;;;;;48.63;34.67;;;6.40;99.90;;;;;;5137741;27;20636;-55
2022/01/17 00:58:42;;;;;;;48.83;32.03;;;6.50;99.90;;;;;;5137818;27;20161;-56
2022/01/17 01:01:08;;;;;;;47.05;35.58;;;6.50;99.90;;;;;;5136341;27;20514;-56
2022/01/17 01:03:34;;;;;;;46.30;32.15;;;6.50;99.90;;;;;;5136480;27;20243;-55
2022/01/17 01:05:59;;;;;;;43.63;34.25;;;6.40;99.90;;;;;;5137602;27;20533;-55
2022/01/17 01:08:25;;;;;;;46.10;32.55;;;6.40;99.90;;;;;;5136516;27;20176;-56
2022/01/17 01:10:51;;;;;;;43.28;34.47;;;6.40;99.90;;;;;;5137193;27;20208;-56
2022/01/17 01:13:22;;;;;;;44.70;32.40;;;6.40;99.90;;;;;;5137238;27;20175;-58
2022/01/17 01:16:09;;;;;;;39.72;34.15;;;6.30;99.90;;;;;;5137386;27;20200;-55
2022/01/17 01:18:49;;;;;;;44.03;32.88;;;6.30;99.90;;;;;;5135938;27;20197;-56
2022/01/17 01:29:09;;;;;;;46.88;34.38;;;6.40;99.90;;;;;;5137276;27;20206;-55
2022/01/17 01:31:52;;;;;;;48.63;34.45;;;6.40;99.90;;;;;;5136567;27;20206;-56
2022/01/17 01:34:25;;;;;;;50.78;35.15;;;6.40;99.90;;;;;;5136100;27;20168;-55
2022/01/17 01:36:51;;;;;;;46.60;35.42;;;6.40;99.90;;;;;;5136012;27;20252;-55
2022/01/17 01:39:22;;;;;;;50.83;33.60;;;6.40;99.90;;;;;;5135544;27;20617;-55
2022/01/17 01:41:48;;;;;;;45.83;34.60;;;6.40;99.90;;;;;;5135883;27;20164;-55
2022/01/17 01:44:19;;;;;;;44.70;34.25;;;6.30;99.90;;;;;;5136932;27;20190;-55
2022/01/17 01:46:46;;;;;;;54.10;34.35;;;6.30;99.90;;;;;;5136542;27;20713;-55
2022/01/17 01:49:13;;;;;;;50.53;33.78;;;6.30;99.90;;;;;;5136781;27;20507;-55
2022/01/17 01:51:39;;;;;;;47.38;32.35;;;6.30;99.90;;;;;;5138579;27;20206;-55
2022/01/17 01:54:04;;;;;;;55.05;32.80;;;6.30;99.90;;;;;;5137429;27;20271;-55
2022/01/17 01:56:30;;;;;;;46.40;34.78;;;6.30;99.90;;;;;;5135663;27;20205;-55
2022/01/17 01:58:57;;;;;;;47.05;33.20;;;6.30;99.90;;;;;;5136656;27;20172;-55
2022/01/17 02:01:23;;;;;;;47.10;35.45;;;6.30;99.90;;;;;;5136634;27;20245;-57
2022/01/17 02:03:49;;;;;;;40.15;32.92;;;6.40;99.90;;;;;;5136513;27;20184;-56
2022/01/17 02:06:14;;;;;;;45.50;35.03;;;6.30;99.90;;;;;;5136469;27;20172;-56
2022/01/17 02:08:40;;;;;;;41.00;33.15;;;6.30;99.90;;;;;;5136427;27;20172;-56
2022/01/17 02:11:10;;;;;;;43.90;32.55;;;6.30;99.90;;;;;;5136352;27;20199;-56
2022/01/17 02:13:38;;;;;;;43.40;34.33;;;6.30;99.90;;;;;;5136510;27;20255;-55
2022/01/17 02:16:05;;;;;;;44.85;34.55;;;6.30;99.90;;;;;;5136104;27;20236;-55
2022/01/17 02:18:31;;;;;;;48.55;34.03;;;6.30;99.90;;;;;;5136336;27;20172;-56
2022/01/17 02:23:45;;;;;;;50.22;32.67;;;6.30;99.90;;;;;;5136278;27;20171;-56
2022/01/17 02:26:11;;;;;;;48.35;35.05;;;6.40;99.90;;;;;;5136098;27;20622;-57
2022/01/17 02:28:39;;;;;;;45.70;30.77;;;6.40;99.90;;;;;;5136359;27;20165;-56
2022/01/17 02:31:06;;;;;;;39.58;31.52;;;6.40;99.90;;;;;;5134666;27;20552;-55
2022/01/17 02:33:34;;;;;;;45.60;31.75;;;6.40;99.90;;;;;;5134480;27;20196;-55
2022/01/17 02:36:01;;;;;;;44.10;30.83;;;6.40;99.90;;;;;;5135559;27;20180;-55
2022/01/17 02:38:27;;;;;;;40.35;33.15;;;6.40;99.90;;;;;;5134594;27;20181;-57
2022/01/17 02:40:54;;;;;;;45.20;32.97;;;6.40;99.90;;;;;;5134546;27;20260;-56
2022/01/17 02:43:21;;;;;;;46.05;31.70;;;6.40;99.90;;;;;;5134789;27;20195;-55
2022/01/17 02:48:18;;;;;;;44.38;34.22;;;6.30;99.90;;;;;;5135647;27;20190;-54
2022/01/17 02:50:44;;;;;;;44.63;32.70;;;6.40;99.90;;;;;;5135253;27;20649;-55
2022/01/17 02:53:12;;;;;;;44.63;33.10;;;6.40;99.90;;;;;;5135333;27;20186;-56
2022/01/17 02:55:42;;;;;;;41.47;30.75;;;6.40;99.90;;;;;;5135494;27;20165;-55
2022/01/17 02:58:08;;;;;;;40.22;32.30;;;6.40;99.90;;;;;;5135261;27;20167;-56
2022/01/17 03:00:34;;;;;;;40.50;31.50;;;6.30;99.90;;;;;;5135409;27;20656;-56
2022/01/17 03:03:00;;;;;;;41.50;29.85;;;6.40;99.90;;;;;;5135343;27;20187;-56
2022/01/17 03:05:25;;;;;;;40.42;31.52;;;6.40;99.90;;;;;;5134989;27;20630;-56
2022/01/17 03:07:51;;;;;;;45.58;30.90;;;6.40;99.90;;;;;;5135299;27;20172;-55
2022/01/17 03:12:52;;;;;;;41.35;33.50;;;6.50;99.90;;;;;;5135213;27;20183;-55
2022/01/17 03:15:21;;;;;;;45.53;32.47;;;6.40;99.90;;;;;;5133966;27;20626;-56
2022/01/17 03:17:46;;;;;;;41.80;31.20;;;6.40;99.90;;;;;;5134764;27;20673;-57
2022/01/17 03:20:12;;;;;;;39.50;32.97;;;6.50;99.90;;;;;;5134729;27;20175;-56
2022/01/17 03:22:39;;;;;;;43.78;31.58;;;6.40;99.90;;;;;;5134973;27;20179;-55
2022/01/17 03:25:05;;;;;;;42.63;31.42;;;6.40;99.90;;;;;;5116775;27;20498;-55
2022/01/17 03:27:31;;;;;;;42.17;31.00;;;6.50;99.90;;;;;;5116651;27;20187;-56
2022/01/17 03:29:56;;;;;;;36.72;30.58;;;6.40;99.90;;;;;;5133959;27;20175;-56
2022/01/17 03:32:22;;;;;;;41.50;32.00;;;6.50;99.90;;;;;;5134762;27;20203;-55
2022/01/17 03:34:48;;;;;;;40.88;32.25;;;6.50;99.90;;;;;;5134828;27;20180;-55
2022/01/17 03:37:13;;;;;;;43.33;32.20;;;6.40;99.90;;;;;;5134475;27;20169;-56
2022/01/17 03:39:39;;;;;;;42.20;32.85;;;6.40;99.90;;;;;;5134863;27;20180;-55
2022/01/17 03:42:05;;;;;;;38.42;30.52;;;6.40;99.90;;;;;;5133995;27;20172;-55
2022/01/17 03:44:30;;;;;;;39.30;30.45;;;6.50;99.90;;;;;;5116570;27;20168;-55
2022/01/17 03:46:56;;;;;;;37.13;29.95;;;6.30;99.90;;;;;;5116224;27;20574;-56
2022/01/17 03:49:22;;;;;;;36.22;28.52;;;6.20;99.90;;;;;;5116420;27;20176;-55
2022/01/17 03:51:48;;;;;;;32.70;27.48;;;6.00;99.90;;;;;;5134598;27;20295;-57
2022/01/17 03:54:14;;;;;;;35.67;29.63;;;6.00;99.90;;;;;;5134552;27;20180;-56
2022/01/17 03:56:40;;;;;;;33.25;26.30;;;5.90;99.90;;;;;;5134499;27;20263;-56
2022/01/17 03:59:05;;;;;;;31.27;27.88;;;5.80;99.90;;;;;;5134149;27;20259;-55
2022/01/17 04:01:31;;;;;;;37.70;27.10;;;5.70;99.90;;;;;;5134498;28;20187;-56
2022/01/17 04:03:57;;;;;;;34.65;28.25;;;5.60;99.90;;;;;;5134462;27;20214;-55
2022/01/17 04:06:24;;;;;;;32.80;28.35;;;5.60;99.90;;;;;;5133273;28;20206;-56
2022/01/17 04:08:49;;;;;;;32.25;27.23;;;5.50;99.90;;;;;;5134114;27;20691;-56
2022/01/17 04:11:15;;;;;;;36.33;28.25;;;5.50;99.90;;;;;;5116035;28;20206;-55
2022/01/17 04:13:41;;;;;;;38.15;27.58;;;5.40;99.90;;;;;;5134377;28;20179;-55
2022/01/17 04:16:06;;;;;;;34.67;26.02;;;5.40;99.90;;;;;;5134046;28;20321;-55
2022/01/17 04:18:32;;;;;;;34.78;28.77;;;5.30;99.90;;;;;;5133161;28;20198;-56
2022/01/17 04:21:01;;;;;;;37.05;28.10;;;5.30;99.90;;;;;;5134001;28;20705;-55
2022/01/17 04:23:27;;;;;;;37.65;27.08;;;5.20;99.90;;;;;;5134459;27;20187;-55
2022/01/17 04:25:52;;;;;;;31.98;26.23;;;5.20;99.90;;;;;;5133016;28;20509;-55
2022/01/17 04:28:18;;;;;;;34.72;27.48;;;5.20;99.90;;;;;;5133945;28;20262;-56
2022/01/17 04:30:44;;;;;;;39.92;29.08;;;5.10;99.90;;;;;;5134120;28;20249;-56
2022/01/17 04:33:11;;;;;;;38.30;30.65;;;5.10;99.90;;;;;;5134111;28;20180;-55
2022/01/17 04:35:38;;;;;;;36.30;31.27;;;5.20;99.90;;;;;;5134139;27;20176;-56
2022/01/17 04:38:07;;;;;;;37.88;28.45;;;5.10;99.90;;;;;;5134164;27;20172;-55
2022/01/17 04:40:36;;;;;;;37.58;27.45;;;5.10;99.90;;;;;;5134062;27;20175;-55
2022/01/17 04:43:05;;;;;;;37.85;27.58;;;5.10;99.90;;;;;;5134055;27;20172;-55
2022/01/17 04:45:32;;;;;;;40.60;28.35;;;5.10;99.90;;;;;;5134067;27;20172;-54
2022/01/17 04:47:58;;;;;;;37.67;28.13;;;5.00;99.90;;;;;;5134592;27;20215;-55
2022/01/17 04:50:26;;;;;;;39.83;28.05;;;5.10;99.90;;;;;;5133727;27;20651;-55
2022/01/17 04:52:55;;;;;;;39.65;27.70;;;5.10;99.90;;;;;;5133983;27;20204;-55
2022/01/17 04:55:21;;;;;;;36.95;27.85;;;5.00;99.90;;;;;;5134018;27;20251;-55
2022/01/17 04:57:48;;;;;;;38.65;28.15;;;4.90;99.90;;;;;;5133946;27;20172;-54
2022/01/17 05:00:16;;;;;;;35.92;28.00;;;4.90;99.90;;;;;;5133998;27;20176;-53
2022/01/17 05:02:42;;;;;;;39.80;27.92;;;4.90;99.90;;;;;;5133835;27;20180;-55
2022/01/17 05:05:09;;;;;;;43.15;28.88;;;4.90;99.90;;;;;;5135024;27;20203;-54
2022/01/17 05:07:36;;;;;;;40.45;27.73;;;4.80;99.90;;;;;;5137731;27;20228;-56
2022/01/17 05:10:04;;;;;;;38.72;29.60;;;4.80;99.90;;;;;;5136417;27;20252;-55
2022/01/17 05:12:30;;;;;;;40.92;28.48;;;4.90;99.90;;;;;;5137487;27;20549;-55
2022/01/17 05:14:57;;;;;;;37.50;29.42;;;4.80;99.90;;;;;;5137608;27;20200;-55
2022/01/17 05:19:58;;;;;;;39.55;29.38;;;4.80;99.90;;;;;;5136411;27;20182;-55
2022/01/17 05:22:29;;;;;;;39.42;28.88;;;4.80;99.90;;;;;;5137289;27;20199;-56
2022/01/17 05:24:55;;;;;;;43.45;30.52;;;4.80;99.90;;;;;;5137513;27;20160;-55
2022/01/17 05:27:20;;;;;;;44.92;29.77;;;4.80;99.90;;;;;;5137858;27;20183;-55
2022/01/17 05:29:46;;;;;;;42.78;29.80;;;4.90;99.90;;;;;;5137426;27;20636;-57
2022/01/17 05:32:12;;;;;;;41.92;29.85;;;4.90;99.90;;;;;;5138754;27;20211;-56
2022/01/17 05:34:41;;;;;;;64.75;37.03;;;5.00;99.90;;;;;;5137539;27;20249;-57
2022/01/17 05:37:08;;;;;;;50.60;34.22;;;5.10;99.90;;;;;;5137206;27;20167;-56
2022/01/17 05:39:34;;;;;;;47.75;33.22;;;5.20;99.90;;;;;;5137184;27;20277;-56
2022/01/17 05:42:00;;;;;;;46.05;34.80;;;5.30;99.90;;;;;;5136736;27;20185;-55
2022/01/17 05:44:26;;;;;;;50.88;34.53;;;5.30;99.90;;;;;;5135502;27;20309;-55
2022/01/17 05:46:51;;;;;;;48.80;35.50;;;5.40;99.90;;;;;;5117457;27;20251;-56
2022/01/17 05:49:17;;;;;;;55.95;37.28;;;5.40;99.90;;;;;;5133612;27;20175;-55
2022/01/17 05:51:43;;;;;;;62.60;41.50;;;5.40;99.90;;;;;;5134319;27;20200;-55
2022/01/17 05:54:09;;;;;;;59.65;38.55;;;5.60;99.90;;;;;;5133057;27;20169;-56
2022/01/17 05:56:34;;;;;;;62.95;39.70;;;5.60;99.90;;;;;;5134224;27;20171;-55
2022/01/17 05:59:00;;;;;;;65.97;40.55;;;5.70;99.90;;;;;;5134967;27;20184;-55
2022/01/17 06:01:26;;;;;;;76.18;44.40;;;5.70;99.90;;;;;;5136612;27;20195;-56
2022/01/17 06:03:51;;;;;;;62.45;40.42;;;5.80;99.90;;;;;;5136649;27;20255;-55
2022/01/17 06:06:17;;;;;;;68.00;42.83;;;5.80;99.90;;;;;;5135357;27;20175;-58
2022/01/17 06:08:43;;;;;;;63.65;40.17;;;5.80;99.90;;;;;;5135696;27;20204;-58
2022/01/17 06:11:09;;;;;;;71.55;42.60;;;5.80;99.90;;;;;;5134968;27;20553;-57
2022/01/17 06:13:35;;;;;;;84.97;51.65;;;5.90;99.90;;;;;;5135832;27;20179;-57
2022/01/17 06:16:00;;;;;;;77.85;45.65;;;6.00;99.90;;;;;;5135836;27;20178;-57
2022/01/17 06:18:26;;;;;;;70.70;43.58;;;6.10;99.90;;;;;;5135549;27;20165;-57
2022/01/17 06:20:52;;;;;;;68.13;48.05;;;6.10;99.90;;;;;;5136275;27;20191;-57
2022/01/17 06:23:17;;;;;;;77.63;49.65;;;6.20;99.90;;;;;;5133580;27;20177;-58
2022/01/17 06:25:43;;;;;;;75.65;50.00;;;6.20;99.90;;;;;;5112441;28;20230;-58
2022/01/17 06:28:09;;;;;;;67.30;46.70;;;6.20;99.90;;;;;;5115205;28;20177;-57
2022/01/17 06:30:34;;;;;;;68.15;44.88;;;6.30;99.90;;;;;;5114431;28;20177;-57
2022/01/17 06:33:03;;;;;;;70.78;47.90;;;6.30;99.90;;;;;;5115160;28;20184;-58
2022/01/17 06:35:29;;;;;;;78.00;51.10;;;6.40;99.90;;;;;;5115273;28;20184;-57
2022/01/17 06:37:55;;;;;;;71.20;45.40;;;6.50;99.90;;;;;;5114783;28;20170;-57
2022/01/17 06:40:20;;;;;;;65.68;43.33;;;6.50;99.90;;;;;;5114975;28;20173;-58
2022/01/17 06:42:46;;;;;;;60.00;44.47;;;6.50;99.90;;;;;;5115173;28;20530;-58
2022/01/17 06:45:13;;;;;;;62.30;42.88;;;6.60;99.90;;;;;;5115185;28;20183;-57
2022/01/17 06:47:40;;;;;;;69.93;45.55;;;6.50;99.90;;;;;;5114690;28;20181;-57
2022/01/17 06:50:08;;;;;;;59.35;41.55;;;6.60;99.90;;;;;;5115063;28;20222;-58
2022/01/17 06:52:34;;;;;;;67.15;41.40;;;6.60;99.90;;;;;;5115021;28;20208;-58
2022/01/17 06:55:00;;;;;;;56.45;39.17;;;6.60;99.90;;;;;;5115019;28;20182;-57
2022/01/17 06:57:26;;;;;;;55.95;38.50;;;6.60;99.90;;;;;;5114957;27;20177;-58
2022/01/17 06:59:52;;;;;;;54.83;37.60;;;6.60;99.90;;;;;;5114560;28;20581;-57
2022/01/17 07:02:18;;;;;;;57.00;37.47;;;6.60;99.90;;;;;;5114246;28;20168;-57
2022/01/17 07:04:44;;;;;;;56.63;39.17;;;6.60;99.90;;;;;;5115026;28;20235;-57
2022/01/17 07:07:10;;;;;;;56.63;42.10;;;6.70;99.90;;;;;;5114667;28;20180;-58
2022/01/17 07:09:36;;;;;;;45.75;37.95;;;6.70;99.90;;;;;;5114655;28;20166;-58
2022/01/17 07:12:03;;;;;;;51.90;37.20;;;6.60;99.90;;;;;;5113155;28;20219;-58
2022/01/17 07:14:29;;;;;;;47.30;37.55;;;6.70;99.90;;;;;;5114442;28;20173;-58
2022/01/17 07:16:56;;;;;;;52.42;36.03;;;6.70;99.90;;;;;;5114225;28;20340;-58
2022/01/17 07:19:22;;;;;;;47.67;34.97;;;6.60;99.90;;;;;;5114083;28;20173;-58
2022/01/17 07:21:49;;;;;;;52.97;39.75;;;6.70;99.90;;;;;;5114983;28;20647;-61
2022/01/17 07:24:15;;;;;;;48.13;34.42;;;6.70;99.90;;;;;;5114466;28;20172;-57
2022/01/17 07:26:40;;;;;;;59.60;39.45;;;6.70;99.90;;;;;;5114354;28;20183;-57
2022/01/17 07:29:08;;;;;;;47.78;32.83;;;6.70;99.90;;;;;;5112870;28;20183;-58
2022/01/17 07:31:35;;;;;;;45.95;33.58;;;6.70;99.90;;;;;;5114102;28;20246;-58
2022/01/17 07:34:00;;;;;;;49.42;27.70;;;6.70;99.90;;;;;;5113894;28;20568;-58
2022/01/17 07:36:26;;;;;;;37.75;27.83;;;6.70;99.90;;;;;;5114334;28;20259;-58
2022/01/17 07:38:52;;;;;;;41.70;26.33;;;6.60;99.90;;;;;;5113822;28;20168;-57
2022/01/17 07:41:17;;;;;;;31.77;24.60;;;6.80;99.90;;;;;;5114149;28;20185;-57
2022/01/17 07:43:43;;;;;;;34.13;24.73;;;6.70;99.90;;;;;;5114046;28;20260;-57
2022/01/17 07:46:22;;;;;;;38.97;28.25;;;6.60;99.90;;;;;;5113856;28;20185;-57
2022/01/17 07:49:10;;;;;;;32.63;23.50;;;6.70;99.90;;;;;;5113948;28;20217;-58
2022/01/17 07:51:38;;;;;;;31.83;22.55;;;6.60;99.90;;;;;;5113932;28;20258;-57
2022/01/17 07:54:04;;;;;;;36.97;23.67;;;6.70;99.90;;;;;;5113921;28;20174;-58
2022/01/17 07:56:32;;;;;;;32.53;23.90;;;6.60;99.90;;;;;;5113849;28;20212;-57
2022/01/17 07:58:57;;;;;;;34.97;22.52;;;6.60;99.90;;;;;;5113869;28;20275;-58
2022/01/17 08:01:23;;;;;;;37.22;22.88;;;6.70;99.90;;;;;;5113867;28;20245;-57
2022/01/17 08:03:49;;;;;;;40.10;22.90;;;6.70;99.90;;;;;;5113857;28;20184;-57
2022/01/17 08:06:15;;;;;;;32.17;22.98;;;6.80;99.90;;;;;;5113666;28;20182;-57
2022/01/17 08:08:41;;;;;;;41.45;21.58;;;6.70;99.90;;;;;;5114064;28;20743;-57
2022/01/17 08:11:06;;;;;;;31.48;20.10;;;6.80;99.90;;;;;;5113808;28;20663;-57
2022/01/17 08:13:32;;;;;;;27.80;19.80;;;6.80;99.90;;;;;;5113500;28;20187;-57
2022/01/17 08:15:58;;;;;;;32.40;21.45;;;6.90;99.90;;;;;;5113339;28;20179;-57
2022/01/17 08:18:24;;;;;;;31.60;18.58;;;6.90;99.90;;;;;;5113212;28;20172;-57
2022/01/17 08:20:49;;;;;;;32.85;19.38;;;6.90;99.90;;;;;;5112354;28;20279;-57
2022/01/17 08:23:15;;;;;;;31.92;19.15;;;6.90;99.90;;;;;;5113354;28;20515;-57
2022/01/17 08:25:41;;;;;;;27.17;17.38;;;6.80;99.90;;;;;;5112382;28;20230;-56
2022/01/17 08:28:06;;;;;;;31.33;17.02;;;6.70;99.90;;;;;;5112141;28;20176;-57
2022/01/17 08:30:32;;;;;;;25.23;17.20;;;6.70;99.90;;;;;;5113434;28;20177;-57
2022/01/17 08:33:00;;;;;;;32.22;15.73;;;6.60;99.90;;;;;;5113768;28;20258;-57
2022/01/17 08:35:26;;;;;;;29.98;15.80;;;6.60;99.90;;;;;;5113262;28;20720;-57
2022/01/17 08:37:52;;;;;;;27.55;16.63;;;6.70;99.90;;;;;;5113544;28;20187;-57
2022/01/17 08:40:19;;;;;;;28.10;17.27;;;6.70;99.90;;;;;;5114557;28;20192;-57
2022/01/17 08:42:49;;;;;;;29.50;15.63;;;6.60;99.90;;;;;;5117424;28;20204;-57
2022/01/17 08:45:16;;;;;;;27.20;15.55;;;6.60;99.90;;;;;;5117613;28;20170;-58
2022/01/17 08:47:49;;;;;;;27.20;15.73;;;6.50;99.90;;;;;;5115861;28;20171;-57
2022/01/17 08:50:16;;;;;;;31.83;15.20;;;6.50;99.90;;;;;;5117322;28;20195;-57
2022/01/17 08:52:44;;;;;;;29.13;16.10;;;6.40;99.90;;;;;;5116882;27;20347;-57
2022/01/17 08:55:10;;;;;;;23.95;15.75;;;6.50;99.90;;;;;;5117030;28;20176;-58
2022/01/17 08:57:36;;;;;;;24.77;15.32;;;6.40;99.90;;;;;;5117232;28;20173;-58
2022/01/17 09:00:06;;;;;;;27.35;14.65;;;6.40;99.90;;;;;;5115863;28;20226;-58
2022/01/17 09:02:32;;;;;;;27.17;15.88;;;6.50;99.90;;;;;;5117054;28;20181;-58
2022/01/17 09:04:58;;;;;;;28.35;15.30;;;6.50;99.90;;;;;;5117060;28;20177;-58
2022/01/17 09:07:23;;;;;;;35.28;15.25;;;6.50;99.90;;;;;;5117167;28;20679;-58
2022/01/17 09:09:49;;;;;;;32.40;16.00;;;6.60;99.90;;;;;;5119666;28;20278;-58
2022/01/17 09:12:15;;;;;;;24.00;14.45;;;6.70;99.90;;;;;;5121078;28;20205;-57
2022/01/17 09:14:41;;;;;;;25.58;14.57;;;6.80;99.90;;;;;;5115754;28;20183;-57
2022/01/17 09:17:09;;;;;;;25.75;13.68;;;6.80;99.90;;;;;;5115353;28;20781;-57
2022/01/17 09:19:36;;;;;;;24.23;14.57;;;6.80;99.90;;;;;;5116745;27;20173;-57
2022/01/17 09:22:03;;;;;;;25.85;13.80;;;7.00;99.90;;;;;;5116756;28;20204;-57
2022/01/17 09:24:29;;;;;;;22.48;12.45;;;7.10;99.90;;;;;;5116577;28;20183;-58
2022/01/17 09:26:55;;;;;;;23.55;12.70;;;7.20;99.90;;;;;;5116739;28;20606;-58
2022/01/17 09:29:21;;;;;;;18.20;12.18;;;7.30;99.90;;;;;;5116603;28;20607;-57
2022/01/17 09:31:47;;;;;;;26.88;12.75;;;7.30;99.90;;;;;;5114828;28;20208;-57
2022/01/17 09:34:12;;;;;;;28.52;11.93;;;7.30;99.90;;;;;;5116720;28;20176;-57
2022/01/17 09:36:39;;;;;;;22.23;11.85;;;7.30;99.90;;;;;;5116467;27;20246;-57
2022/01/17 09:39:07;;;;;;;18.73;11.38;;;7.30;99.90;;;;;;5116183;28;20166;-57
2022/01/17 09:41:33;;;;;;;20.65;11.75;;;7.30;99.90;;;;;;5116134;28;20553;-57
2022/01/17 09:43:59;;;;;;;23.02;11.82;;;7.30;99.90;;;;;;5116345;28;20634;-57
2022/01/17 09:46:31;;;;;;;23.38;11.32;;;7.20;99.90;;;;;;5116179;27;20192;-58
2022/01/17 09:49:02;;;;;;;21.13;12.10;;;7.20;99.90;;;;;;5116312;28;20200;-57
2022/01/17 09:51:40;;;;;;;23.75;11.27;;;7.20;99.90;;;;;;5115956;28;20638;-57
2022/01/17 09:54:08;;;;;;;18.45;10.52;;;7.10;99.90;;;;;;5116388;28;20158;-58
2022/01/17 09:56:34;;;;;;;23.25;12.48;;;7.00;99.90;;;;;;5116033;28;20175;-58
2022/01/17 09:59:02;;;;;;;21.90;11.07;;;7.00;99.90;;;;;;5114919;28;20504;-57
2022/01/17 10:01:28;;;;;;;24.85;12.07;;;7.00;99.90;;;;;;5115938;28;20182;-57
2022/01/17 10:03:56;;;;;;;21.42;11.38;;;7.00;99.90;;;;;;5114868;28;20173;-57
2022/01/17 10:06:23;;;;;;;25.83;12.05;;;7.10;99.90;;;;;;5115558;28;20173;-57
2022/01/17 10:09:07;;;;;;;19.83;12.10;;;7.10;99.90;;;;;;5115847;28;20180;-57
2022/01/17 10:11:33;;;;;;;22.55;11.77;;;7.30;99.90;;;;;;5115756;28;20299;-57
2022/01/17 10:13:58;;;;;;;19.33;11.48;;;7.30;99.90;;;;;;5115706;28;20261;-57
2022/01/17 10:16:25;;;;;;;21.38;11.73;;;7.40;99.90;;;;;;5115524;28;20241;-57
2022/01/17 10:18:56;;;;;;;20.75;11.73;;;7.50;99.90;;;;;;5115788;28;20161;-57
2022/01/17 10:21:39;;;;;;;22.98;11.55;;;7.60;99.90;;;;;;5115550;28;20660;-57
2022/01/17 10:37:22;;;;;;;26.17;13.60;;;7.80;99.90;;;;;;5115274;28;20185;-57
2022/01/17 10:39:54;;;;;;;23.08;12.35;;;7.70;99.90;;;;;;5114135;28;20214;-58
2022/01/17 10:42:30;;;;;;;26.15;12.38;;;7.70;99.90;;;;;;5115008;28;20184;-58
2022/01/17 10:45:08;;;;;;;23.05;12.32;;;7.70;99.90;;;;;;5115201;27;20169;-58
2022/01/17 10:47:37;;;;;;;24.20;11.90;;;7.90;99.90;;;;;;5115071;28;20538;-58
2022/01/17 10:50:22;;;;;;;21.55;11.48;;;8.00;99.90;;;;;;5113862;28;20170;-58
2022/01/17 10:52:56;;;;;;;20.45;10.00;;;8.20;99.90;;;;;;5115106;28;20189;-58
2022/01/17 10:55:27;;;;;;;15.50;10.05;;;8.30;99.90;;;;;;5115825;28;20162;-58
2022/01/17 10:58:04;;;;;;;18.33;10.25;;;8.40;99.90;;;;;;5119223;28;20173;-57
2022/01/17 11:00:39;;;;;;;19.83;9.68;;;8.50;99.90;;;;;;5115528;28;20161;-57
2022/01/17 11:03:11;;;;;;;18.98;10.05;;;8.50;99.90;;;;;;5113924;28;20188;-58
2022/01/17 11:05:43;;;;;;;17.85;9.30;;;8.60;99.90;;;;;;5114660;28;20218;-57
2022/01/17 11:08:09;;;;;;;19.67;10.18;;;8.60;99.90;;;;;;5114777;28;20161;-57
2022/01/17 11:10:41;;;;;;;16.92;9.27;;;8.70;99.90;;;;;;5114626;28;20177;-58
2022/01/17 11:13:12;;;;;;;20.08;9.52;;;8.60;99.90;;;;;;5114604;28;20188;-57
2022/01/17 11:15:40;;;;;;;20.17;9.70;;;8.60;99.90;;;;;;5114838;28;20149;-58
2022/01/17 11:18:20;;;;;;;18.85;10.35;;;8.50;99.90;;;;;;5114756;28;20177;-57
2022/01/17 11:20:47;;;;;;;17.60;9.70;;;8.40;99.90;;;;;;5114559;28;20198;-58
2022/01/17 11:23:13;;;;;;;21.38;10.90;;;8.30;99.90;;;;;;5113271;28;20266;-58
2022/01/17 11:25:42;;;;;;;20.45;10.90;;;8.20;99.90;;;;;;5114362;28;20173;-57
2022/01/17 11:28:09;;;;;;;16.33;10.57;;;8.30;99.90;;;;;;5114378;28;20170;-57
2022/01/17 11:30:38;;;;;;;18.20;10.45;;;8.30;99.90;;;;;;5114193;28;20181;-57
2022/01/17 11:33:07;;;;;;;23.08;10.82;;;8.40;99.90;;;;;;5114258;28;20189;-57
2022/01/17 11:35:34;;;;;;;21.05;10.40;;;8.40;99.90;;;;;;5114224;28;20623;-58
2022/01/17 11:38:02;;;;;;;14.75;9.20;;;8.40;99.90;;;;;;5113963;28;20268;-57
2022/01/17 11:40:33;;;;;;;22.60;10.60;;;8.40;99.90;;;;;;5114084;28;20589;-57
2022/01/17 11:43:00;;;;;;;16.80;9.38;;;8.50;99.90;;;;;;5114192;28;20682;-58
2022/01/17 11:45:29;;;;;;;16.73;8.98;;;8.60;99.90;;;;;;5114118;28;20176;-57
2022/01/17 11:47:59;;;;;;;16.50;8.75;;;8.70;99.90;;;;;;5114154;28;20570;-57
2022/01/17 11:50:31;;;;;;;16.33;8.05;;;8.90;99.90;;;;;;5113975;28;20169;-57
2022/01/17 11:53:23;;;;;;;15.95;7.30;;;9.10;99.90;;;;;;5113845;28;20201;-57
2022/01/17 11:55:50;;;;;;;15.02;6.22;;;9.30;99.90;;;;;;5106595;28;20212;-57
2022/01/17 11:58:26;;;;;;;16.20;7.07;;;9.50;99.90;;;;;;5113866;28;20174;-57
2022/01/17 12:00:57;;;;;;;14.13;5.93;;;9.60;99.90;;;;;;5114189;28;20218;-58
2022/01/17 12:03:42;;;;;;;13.73;5.90;;;9.60;99.90;;;;;;5113823;28;20193;-58
2022/01/17 12:06:18;;;;;;;13.27;6.32;;;9.60;99.90;;;;;;5114183;28;20150;-57
2022/01/17 12:08:44;;;;;;;13.05;5.30;;;9.60;99.90;;;;;;5113834;28;20218;-57
2022/01/17 12:11:29;;;;;;;15.95;5.78;;;9.70;99.90;;;;;;5113692;28;20205;-57
2022/01/17 12:14:02;;;;;;;11.25;5.32;;;9.60;99.90;;;;;;5113488;28;20522;-57
2022/01/17 12:16:30;;;;;;;16.75;5.60;;;9.50;99.90;;;;;;5116767;28;20189;-57
2022/01/17 12:19:03;;;;;;;10.45;5.10;;;9.50;99.90;;;;;;5117976;28;20169;-57
2022/01/17 12:21:36;;;;;;;13.13;5.75;;;9.40;99.90;;;;;;5117996;28;20200;-57
2022/01/17 12:24:26;;;;;;;12.52;4.97;;;9.30;99.90;;;;;;5117879;28;20507;-57
2022/01/17 12:26:56;;;;;;;13.95;5.82;;;9.40;99.90;;;;;;5117778;28;20214;-57
2022/01/17 12:29:39;;;;;;;12.75;5.00;;;9.40;99.90;;;;;;5118039;28;20184;-57
2022/01/17 12:32:07;;;;;;;15.88;5.85;;;9.40;99.90;;;;;;5117363;28;20275;-57
2022/01/17 12:34:41;;;;;;;13.70;5.30;;;9.40;99.90;;;;;;5117445;28;20184;-57
2022/01/17 12:37:31;;;;;;;19.40;5.57;;;9.40;99.90;;;;;;5117784;28;20157;-57
2022/01/17 12:40:19;;;;;;;13.38;5.00;;;9.40;99.90;;;;;;5117630;28;20197;-57
2022/01/17 12:42:56;;;;;;;12.23;4.88;;;9.30;99.90;;;;;;5118542;28;20166;-57
2022/01/17 12:45:24;;;;;;;15.07;5.40;;;9.30;99.90;;;;;;5119919;28;20179;-57
2022/01/17 12:47:50;;;;;;;13.15;5.68;;;9.10;99.90;;;;;;5118030;28;20484;-58
2022/01/17 12:50:19;;;;;;;11.63;5.63;;;9.00;99.90;;;;;;5117163;28;20187;-57
2022/01/17 12:52:45;;;;;;;13.50;5.63;;;9.10;99.90;;;;;;5117113;28;20196;-57
2022/01/17 12:55:11;;;;;;;12.20;4.85;;;9.20;99.90;;;;;;5082165;28;20181;-57
2022/01/17 12:57:43;;;;;;;13.20;5.55;;;9.40;99.90;;;;;;5117285;28;20214;-57
2022/01/17 13:00:15;;;;;;;16.30;5.45;;;9.40;99.90;;;;;;5117394;28;20166;-57
2022/01/17 13:02:49;;;;;;;13.52;5.07;;;9.30;99.90;;;;;;5116942;28;20526;-57
2022/01/17 13:05:20;;;;;;;12.75;4.75;;;9.30;99.90;;;;;;5117061;28;20587;-57
2022/01/17 13:07:45;;;;;;;17.63;5.55;;;9.20;99.90;;;;;;5115854;28;20169;-57
2022/01/17 13:10:11;;;;;;;16.10;6.85;;;9.20;99.90;;;;;;5116792;28;20173;-57
2022/01/17 13:12:41;;;;;;;15.18;5.65;;;9.10;99.90;;;;;;5116908;28;20208;-57
2022/01/17 13:15:08;;;;;;;13.07;6.13;;;9.00;99.90;;;;;;5116785;28;20166;-57
2022/01/17 13:17:35;;;;;;;12.15;4.55;;;9.00;99.90;;;;;;5115284;28;20241;-57